createdAt,value
2018-02-27T00:00:38.141Z,34.50
2018-02-27T00:03:05.731Z,34.80
2018-02-27T00:05:33.271Z,34.90
2018-02-27T00:08:01.011Z,34.90
2018-02-27T00:10:28.553Z,34.90
2018-02-27T00:12:56.157Z,34.90
2018-02-27T00:15:23.802Z,34.60
2018-02-27T00:17:51.366Z,34.70
2018-02-27T00:20:19.177Z,35.00
2018-02-27T00:22:47.487Z,35.00
2018-02-27T00:25:15.020Z,34.90
2018-02-27T00:27:43.357Z,35.00
2018-02-27T00:30:10.954Z,34.90
2018-02-27T00:32:38.499Z,34.90
2018-02-27T00:35:06.077Z,34.80
2018-02-27T00:37:34.386Z,34.60
2018-02-27T00:40:01.961Z,34.50
2018-02-27T00:42:29.729Z,34.60
2018-02-27T00:44:57.306Z,34.90
2018-02-27T00:47:24.854Z,35.10
2018-02-27T00:49:52.461Z,35.00
2018-02-27T00:52:20.053Z,35.00
2018-02-27T00:54:48.233Z,35.20
2018-02-27T00:57:15.788Z,35.40
2018-02-27T00:59:43.350Z,35.50
2018-02-27T01:02:11.009Z,35.50
2018-02-27T01:04:38.711Z,35.60
2018-02-27T01:07:06.302Z,35.50
2018-02-27T01:09:33.875Z,35.60
2018-02-27T01:12:01.472Z,35.50
2018-02-27T01:14:29.891Z,35.60
2018-02-27T01:16:57.460Z,35.80
2018-02-27T01:19:25.778Z,35.70
2018-02-27T01:21:53.456Z,35.70
2018-02-27T01:24:20.998Z,35.60
2018-02-27T01:26:48.598Z,35.80
2018-02-27T01:29:16.194Z,35.70
2018-02-27T01:31:43.813Z,35.80
2018-02-27T01:34:11.439Z,36.10
2018-02-27T01:36:38.981Z,35.90
2018-02-27T01:39:06.539Z,35.90
2018-02-27T01:41:34.706Z,35.80
2018-02-27T01:44:02.278Z,35.70
2018-02-27T01:46:29.833Z,35.80
2018-02-27T01:48:57.452Z,35.80
2018-02-27T01:51:25.042Z,35.70
2018-02-27T01:53:52.613Z,35.60
2018-02-27T01:56:20.153Z,35.80
2018-02-27T01:58:48.494Z,35.80
2018-02-27T02:01:16.059Z,35.80
2018-02-27T02:03:43.620Z,35.60
2018-02-27T02:06:11.183Z,35.70
2018-02-27T02:08:38.770Z,35.40
2018-02-27T02:11:06.332Z,35.40
2018-02-27T02:13:33.968Z,35.40
2018-02-27T02:16:01.513Z,35.20
2018-02-27T02:18:29.106Z,35.10
2018-02-27T02:20:57.449Z,35.10
2018-02-27T02:23:25.008Z,35.10
2018-02-27T02:25:52.602Z,35.20
2018-02-27T02:28:20.194Z,35.30
2018-02-27T02:30:47.776Z,35.30
2018-02-27T02:33:15.623Z,35.30
2018-02-27T02:35:43.199Z,35.40
2018-02-27T02:38:10.777Z,35.60
2018-02-27T02:40:38.322Z,35.60
2018-02-27T02:43:05.848Z,35.50
2018-02-27T02:45:33.491Z,35.20
2018-02-27T02:48:01.057Z,35.40
2018-02-27T02:50:28.631Z,35.50
2018-02-27T02:52:56.220Z,35.60
2018-02-27T02:55:23.770Z,35.50
2018-02-27T02:57:51.377Z,35.60
2018-02-27T03:00:18.926Z,35.70
2018-02-27T03:02:46.632Z,35.70
2018-02-27T03:05:14.849Z,35.80
2018-02-27T03:07:43.042Z,35.80
2018-02-27T03:10:10.597Z,35.70
2018-02-27T03:12:38.166Z,35.70
2018-02-27T03:15:05.769Z,35.80
2018-02-27T03:17:33.363Z,35.30
2018-02-27T03:20:00.975Z,35.60
2018-02-27T03:22:28.596Z,36.20
2018-02-27T03:24:56.130Z,35.60
2018-02-27T03:27:23.677Z,35.40
2018-02-27T03:29:51.249Z,35.50
2018-02-27T03:32:18.830Z,35.90
2018-02-27T03:34:46.372Z,36.00
2018-02-27T03:37:13.932Z,36.10
2018-02-27T03:39:41.853Z,36.30
2018-02-27T03:42:09.397Z,36.30
2018-02-27T03:44:36.953Z,36.50
2018-02-27T03:47:04.545Z,36.60
2018-02-27T03:49:32.094Z,37.30
2018-02-27T03:52:00.587Z,37.10
2018-02-27T03:54:28.148Z,37.00
2018-02-27T03:56:55.761Z,37.10
2018-02-27T03:59:23.332Z,36.90
2018-02-27T04:01:51.852Z,36.90
2018-02-27T04:04:20.262Z,36.70
2018-02-27T04:06:47.844Z,36.70
2018-02-27T04:09:15.399Z,36.60
2018-02-27T04:11:43.155Z,36.50
2018-02-27T04:14:10.696Z,36.30
2018-02-27T04:16:38.357Z,36.40
2018-02-27T04:19:05.927Z,36.40
2018-02-27T04:21:33.516Z,36.30
2018-02-27T04:24:01.115Z,36.30
2018-02-27T04:26:29.419Z,36.40
2018-02-27T04:28:56.988Z,36.30
2018-02-27T04:31:24.621Z,36.60
2018-02-27T04:33:52.176Z,36.60
2018-02-27T04:36:21.000Z,36.60
2018-02-27T04:38:48.560Z,36.50
2018-02-27T04:41:16.194Z,36.70
2018-02-27T04:43:43.782Z,36.60
2018-02-27T04:46:11.372Z,36.70
2018-02-27T04:48:39.297Z,36.60
2018-02-27T04:51:06.905Z,36.70
2018-02-27T04:53:34.500Z,36.90
2018-02-27T04:56:02.241Z,36.80
2018-02-27T04:58:29.856Z,36.70
2018-02-27T05:00:57.568Z,36.90
2018-02-27T05:03:25.921Z,37.10
2018-02-27T05:05:53.457Z,37.10
2018-02-27T05:08:21.046Z,37.20
2018-02-27T05:10:48.606Z,37.20
2018-02-27T05:13:16.184Z,37.20
2018-02-27T05:15:43.744Z,37.20
2018-02-27T05:18:11.386Z,37.50
2018-02-27T05:20:38.946Z,37.60
2018-02-27T05:23:07.268Z,37.50
2018-02-27T05:25:34.886Z,37.40
2018-02-27T05:28:02.444Z,37.60
2018-02-27T05:30:29.996Z,37.60
2018-02-27T05:32:57.566Z,37.30
2018-02-27T05:35:25.409Z,36.80
2018-02-27T05:37:52.979Z,36.90
2018-02-27T05:40:20.549Z,37.10
2018-02-27T05:42:48.149Z,37.10
2018-02-27T05:45:15.746Z,37.20
2018-02-27T05:47:43.320Z,37.10
2018-02-27T05:50:10.982Z,37.10
2018-02-27T05:52:38.661Z,37.30
2018-02-27T05:55:06.208Z,37.10
2018-02-27T05:57:34.057Z,37.10
2018-02-27T06:00:01.629Z,36.90
2018-02-27T06:02:29.293Z,37.20
2018-02-27T06:04:56.874Z,37.30
2018-02-27T06:07:24.446Z,36.80
2018-02-27T06:09:51.976Z,36.90
2018-02-27T06:12:19.529Z,37.00
2018-02-27T06:14:47.085Z,37.10
2018-02-27T06:17:14.671Z,37.20
2018-02-27T06:19:42.973Z,37.30
2018-02-27T06:22:11.142Z,37.30
2018-02-27T06:24:38.697Z,37.10
2018-02-27T06:27:06.270Z,37.30
2018-02-27T06:29:34.583Z,37.30
2018-02-27T06:32:02.348Z,37.20
2018-02-27T06:34:29.957Z,37.10
2018-02-27T06:36:58.272Z,37.20
2018-02-27T06:39:26.842Z,37.20
2018-02-27T06:41:54.434Z,37.20
2018-02-27T06:44:21.992Z,37.00
2018-02-27T06:46:49.571Z,36.70
2018-02-27T06:49:17.151Z,37.00
2018-02-27T06:51:45.635Z,36.70
2018-02-27T06:54:14.065Z,36.50
2018-02-27T06:56:41.684Z,36.40
2018-02-27T06:59:09.265Z,36.90
2018-02-27T07:01:36.873Z,36.50
2018-02-27T07:04:04.418Z,36.70
2018-02-27T07:06:32.044Z,36.70
2018-02-27T07:08:59.632Z,36.70
2018-02-27T07:11:27.212Z,36.40
2018-02-27T07:13:54.781Z,36.40
2018-02-27T07:16:22.333Z,36.30
2018-02-27T07:18:49.950Z,36.20
2018-02-27T07:21:17.652Z,36.20
2018-02-27T07:23:45.221Z,36.30
2018-02-27T07:26:12.788Z,36.50
2018-02-27T07:28:40.394Z,36.10
2018-02-27T07:31:07.921Z,36.20
2018-02-27T07:33:35.507Z,36.10
2018-02-27T07:36:03.078Z,36.40
2018-02-27T07:38:30.658Z,36.50
2018-02-27T07:40:58.389Z,36.40
2018-02-27T07:43:25.949Z,35.80
2018-02-27T07:45:53.625Z,35.70
2018-02-27T07:48:21.187Z,35.90
2018-02-27T07:50:48.768Z,36.30
2018-02-27T07:53:16.532Z,36.50
2018-02-27T07:55:44.302Z,36.40
2018-02-27T07:58:11.926Z,36.40
2018-02-27T08:00:39.578Z,36.20
2018-02-27T08:03:07.218Z,36.20
2018-02-27T08:05:34.801Z,35.80
2018-02-27T08:08:02.376Z,35.50
2018-02-27T08:10:29.911Z,35.70
2018-02-27T08:12:58.863Z,35.50
2018-02-27T08:15:28.718Z,35.50
2018-02-27T08:17:56.352Z,35.50
2018-02-27T08:20:24.590Z,35.30
2018-02-27T08:22:53.569Z,35.30
2018-02-27T08:25:22.321Z,34.80
2018-02-27T08:27:49.905Z,34.80
2018-02-27T08:30:17.817Z,33.10
2018-02-27T08:32:45.697Z,34.30
2018-02-27T08:35:13.410Z,34.50
2018-02-27T08:37:41.053Z,34.40
2018-02-27T08:40:09.503Z,34.40
2018-02-27T08:42:39.884Z,34.40
2018-02-27T08:45:07.633Z,33.90
2018-02-27T08:47:36.154Z,33.90
2018-02-27T08:50:03.820Z,34.10
2018-02-27T08:52:31.544Z,33.90
2018-02-27T08:54:59.200Z,34.20
2018-02-27T08:57:27.590Z,33.40
2018-02-27T08:59:56.018Z,33.30
2018-02-27T09:02:23.768Z,33.20
2018-02-27T09:04:51.392Z,33.50
2018-02-27T09:07:18.912Z,33.80
2018-02-27T09:09:46.508Z,33.40
2018-02-27T09:12:14.056Z,33.00
2018-02-27T09:14:41.767Z,33.50
2018-02-27T09:17:09.293Z,33.20
2018-02-27T09:19:36.857Z,33.40
2018-02-27T09:22:05.195Z,33.70
2018-02-27T09:24:33.512Z,33.60
2018-02-27T09:27:01.106Z,33.30
2018-02-27T09:29:28.681Z,32.90
2018-02-27T09:31:56.294Z,32.50
2018-02-27T09:34:24.624Z,32.40
2018-02-27T09:36:52.200Z,32.40
2018-02-27T09:39:19.794Z,32.00
2018-02-27T09:41:47.388Z,32.10
2018-02-27T09:44:15.152Z,32.20
2018-02-27T09:46:42.744Z,32.00
2018-02-27T09:49:10.303Z,32.10
2018-02-27T09:51:37.894Z,32.00
2018-02-27T09:54:05.473Z,32.00
2018-02-27T09:56:33.279Z,31.60
2018-02-27T09:59:00.839Z,31.60
2018-02-27T10:01:29.507Z,31.40
2018-02-27T10:03:57.055Z,31.60
2018-02-27T10:06:24.667Z,31.20
2018-02-27T10:08:52.264Z,30.80
2018-02-27T10:11:19.825Z,31.40
2018-02-27T10:13:47.636Z,31.20
2018-02-27T10:16:15.898Z,31.50
2018-02-27T10:18:43.514Z,31.10
2018-02-27T10:21:12.134Z,31.00
2018-02-27T10:23:39.674Z,30.80
2018-02-27T10:26:09.136Z,31.00
2018-02-27T10:28:36.724Z,31.20
2018-02-27T10:31:05.083Z,30.50
2018-02-27T10:33:33.440Z,30.70
2018-02-27T10:36:01.518Z,30.70
2018-02-27T10:38:30.962Z,30.80
2018-02-27T10:40:58.519Z,30.80
2018-02-27T10:43:26.292Z,30.70
2018-02-27T10:45:53.846Z,30.60
2018-02-27T10:48:21.584Z,30.30
2018-02-27T10:50:50.540Z,30.20
2018-02-27T10:53:18.139Z,30.20
2018-02-27T10:55:45.847Z,30.40
2018-02-27T10:58:13.742Z,30.60
2018-02-27T11:00:47.216Z,30.70
2018-02-27T11:03:15.473Z,30.50
2018-02-27T11:05:43.396Z,30.20
2018-02-27T11:08:11.122Z,30.20
2018-02-27T11:10:38.725Z,30.30
2018-02-27T11:13:06.712Z,30.60
2018-02-27T11:15:34.260Z,30.50
2018-02-27T11:18:01.860Z,30.30
2018-02-27T11:20:29.557Z,30.60
2018-02-27T11:22:57.083Z,30.30
2018-02-27T11:25:24.656Z,30.20
2018-02-27T11:27:53.055Z,30.40
2018-02-27T11:30:21.308Z,30.00
2018-02-27T11:32:48.981Z,30.00
2018-02-27T11:35:16.766Z,29.80
2018-02-27T11:37:44.635Z,29.70
2018-02-27T11:40:12.300Z,29.70
2018-02-27T11:42:39.909Z,29.60
2018-02-27T11:45:07.510Z,29.60
2018-02-27T11:47:35.118Z,29.50
2018-02-27T11:50:02.733Z,29.60
2018-02-27T11:52:30.442Z,29.30
2018-02-27T11:54:58.286Z,29.30
2018-02-27T11:57:25.924Z,29.40
2018-02-27T11:59:53.552Z,29.60
2018-02-27T12:02:21.188Z,29.60
2018-02-27T12:04:49.061Z,29.20
2018-02-27T12:07:16.775Z,29.00
2018-02-27T12:09:44.386Z,29.00
2018-02-27T12:12:11.982Z,28.80
2018-02-27T12:14:39.602Z,29.00
2018-02-27T12:17:07.371Z,29.60
2018-02-27T12:19:35.081Z,29.10
2018-02-27T12:22:02.736Z,28.90
2018-02-27T12:24:30.509Z,29.10
2018-02-27T12:26:58.069Z,29.10
2018-02-27T12:29:25.682Z,28.80
2018-02-27T12:31:53.296Z,28.70
2018-02-27T12:34:20.864Z,29.10
2018-02-27T12:36:48.510Z,28.90
2018-02-27T12:39:16.180Z,29.00
2018-02-27T12:41:43.825Z,28.90
2018-02-27T12:44:11.451Z,29.00
2018-02-27T12:46:40.179Z,28.80
2018-02-27T12:49:08.058Z,28.80
2018-02-27T12:51:35.648Z,29.10
2018-02-27T12:54:04.102Z,29.10
2018-02-27T12:56:32.066Z,29.10
2018-02-27T12:58:59.951Z,28.50
2018-02-27T13:01:27.597Z,28.30
2018-02-27T13:03:55.133Z,28.00
2018-02-27T13:06:22.833Z,27.90
2018-02-27T13:08:50.395Z,27.60
2018-02-27T13:11:18.142Z,27.50
2018-02-27T13:13:46.302Z,27.40
2018-02-27T13:16:13.970Z,27.10
2018-02-27T13:18:42.138Z,27.40
2018-02-27T13:21:09.706Z,27.50
2018-02-27T13:23:37.262Z,28.10
2018-02-27T13:26:04.839Z,28.00
2018-02-27T13:28:32.497Z,27.90
2018-02-27T13:31:00.102Z,27.90
2018-02-27T13:33:27.704Z,27.90
2018-02-27T13:35:55.309Z,27.90
2018-02-27T13:38:23.066Z,27.50
2018-02-27T13:40:50.807Z,27.40
2018-02-27T13:43:18.422Z,27.50
2018-02-27T13:45:46.181Z,27.80
2018-02-27T13:48:13.764Z,28.00
2018-02-27T13:50:41.368Z,27.90
2018-02-27T13:53:08.926Z,27.80
2018-02-27T13:55:36.678Z,27.80
2018-02-27T13:58:04.290Z,27.60
2018-02-27T14:00:31.886Z,27.40
2018-02-27T14:02:59.471Z,27.50
2018-02-27T14:05:27.055Z,27.70
2018-02-27T14:07:54.872Z,27.80
2018-02-27T14:10:23.449Z,27.80
2018-02-27T14:12:51.043Z,28.00
2018-02-27T14:15:18.685Z,28.00
2018-02-27T14:17:46.299Z,28.00
2018-02-27T14:20:14.606Z,28.40
2018-02-27T14:22:42.246Z,28.30
2018-02-27T14:25:09.836Z,28.10
2018-02-27T14:27:41.329Z,28.00
2018-02-27T14:30:08.924Z,28.10
2018-02-27T14:32:36.613Z,28.20
2018-02-27T14:35:04.297Z,27.80
2018-02-27T14:37:31.977Z,27.70
2018-02-27T14:39:59.844Z,27.80
2018-02-27T14:42:27.685Z,27.60
2018-02-27T14:44:55.310Z,27.60
2018-02-27T14:47:23.030Z,27.50
2018-02-27T14:49:50.681Z,27.40
2018-02-27T14:52:18.305Z,28.20
2018-02-27T14:54:45.908Z,27.70
2018-02-27T14:57:13.489Z,27.60
2018-02-27T14:59:41.809Z,28.00
2018-02-27T15:02:09.388Z,27.90
2018-02-27T15:04:36.984Z,27.80
2018-02-27T15:07:04.615Z,27.80
2018-02-27T15:09:32.272Z,27.70
2018-02-27T15:11:59.880Z,27.70
2018-02-27T15:14:28.125Z,27.60
2018-02-27T15:16:55.871Z,27.70
2018-02-27T15:19:23.430Z,27.80
2018-02-27T15:21:51.019Z,27.70
2018-02-27T15:24:18.693Z,27.70
2018-02-27T15:26:46.380Z,27.40
2018-02-27T15:29:13.944Z,27.20
2018-02-27T15:31:41.584Z,27.30
2018-02-27T15:34:09.924Z,27.60
2018-02-27T15:36:37.509Z,27.60
2018-02-27T15:39:05.165Z,27.50
2018-02-27T15:41:32.724Z,27.60
2018-02-27T15:44:00.350Z,27.70
2018-02-27T15:46:28.110Z,27.80
2018-02-27T15:48:55.749Z,27.90
2018-02-27T15:51:23.454Z,28.00
2018-02-27T15:53:51.022Z,28.40
2018-02-27T15:56:18.640Z,28.60
2018-02-27T15:58:47.036Z,28.80
2018-02-27T16:01:14.715Z,28.30
2018-02-27T16:03:42.241Z,27.90
2018-02-27T16:06:09.931Z,28.00
2018-02-27T16:08:37.709Z,28.00
2018-02-27T16:11:05.321Z,27.90
2018-02-27T16:13:32.915Z,28.10
2018-02-27T16:16:00.517Z,28.00
2018-02-27T16:18:28.152Z,28.10
2018-02-27T16:20:56.609Z,28.10
2018-02-27T16:23:24.190Z,28.10
2018-02-27T16:25:51.748Z,28.30
2018-02-27T16:28:19.589Z,28.30
2018-02-27T16:30:47.250Z,28.40
2018-02-27T16:33:14.848Z,28.10
2018-02-27T16:35:42.477Z,28.10
2018-02-27T16:38:10.074Z,28.20
2018-02-27T16:40:37.650Z,28.20
2018-02-27T16:43:05.220Z,28.30
2018-02-27T16:45:33.517Z,28.30
2018-02-27T16:48:01.117Z,28.20
2018-02-27T16:50:28.756Z,28.40
2018-02-27T16:52:56.406Z,28.30
2018-02-27T16:55:23.953Z,28.20
2018-02-27T16:57:51.546Z,28.20
2018-02-27T17:00:19.136Z,28.30
2018-02-27T17:02:46.793Z,28.10
2018-02-27T17:05:14.426Z,28.20
2018-02-27T17:07:41.979Z,28.30
2018-02-27T17:10:09.639Z,28.20
2018-02-27T17:12:37.333Z,28.40
2018-02-27T17:15:04.925Z,28.20
2018-02-27T17:17:33.282Z,28.00
2018-02-27T17:20:00.840Z,27.90
2018-02-27T17:22:28.518Z,27.80
2018-02-27T17:24:56.882Z,28.30
2018-02-27T17:27:25.236Z,28.40
2018-02-27T17:29:54.197Z,28.40
2018-02-27T17:32:21.793Z,28.30
2018-02-27T17:34:49.416Z,28.30
2018-02-27T17:37:17.044Z,28.50
2018-02-27T17:39:44.627Z,28.40
2018-02-27T17:42:12.496Z,28.50
2018-02-27T17:44:41.794Z,28.60
2018-02-27T17:47:10.176Z,28.60
2018-02-27T17:49:37.839Z,28.60
2018-02-27T17:52:05.386Z,28.80
2018-02-27T17:54:33.725Z,29.00
2018-02-27T17:57:01.588Z,29.00
2018-02-27T17:59:29.660Z,28.90
2018-02-27T18:02:00.425Z,28.70
2018-02-27T18:04:29.412Z,28.70
2018-02-27T18:06:57.079Z,28.80
2018-02-27T18:09:26.327Z,28.80
2018-02-27T18:11:53.854Z,29.00
2018-02-27T18:14:23.516Z,29.40
2018-02-27T18:16:53.132Z,29.40
2018-02-27T18:19:23.054Z,29.60
2018-02-27T18:21:53.324Z,29.60
2018-02-27T18:24:23.818Z,29.60
2018-02-27T18:26:55.063Z,29.50
2018-02-27T18:29:22.633Z,29.40
2018-02-27T18:31:50.228Z,29.60
2018-02-27T18:34:21.447Z,29.80
2018-02-27T18:36:49.502Z,29.70
2018-02-27T18:39:17.071Z,29.90
2018-02-27T18:41:44.658Z,29.80
2018-02-27T18:44:12.281Z,29.60
2018-02-27T18:46:39.869Z,29.50
2018-02-27T18:49:08.201Z,30.20
2018-02-27T18:51:35.743Z,30.20
2018-02-27T18:54:03.351Z,30.50
2018-02-27T18:56:30.981Z,30.90
2018-02-27T18:58:58.607Z,31.30
2018-02-27T19:01:26.370Z,31.30
2018-02-27T19:03:54.237Z,31.40
2018-02-27T19:06:21.803Z,31.50
2018-02-27T19:08:49.408Z,31.70
2018-02-27T19:11:17.040Z,31.60
2018-02-27T19:13:44.727Z,32.10
2018-02-27T19:16:12.465Z,32.50
2018-02-27T19:18:40.065Z,32.50
2018-02-27T19:21:07.715Z,32.30
2018-02-27T19:23:35.371Z,32.20
2018-02-27T19:26:03.014Z,32.50
2018-02-27T19:28:30.736Z,32.60
2018-02-27T19:30:58.352Z,32.70
2018-02-27T19:33:26.703Z,33.30
2018-02-27T19:35:54.275Z,33.30
2018-02-27T19:38:21.850Z,33.70
2018-02-27T19:40:49.418Z,33.90
2018-02-27T19:43:16.973Z,33.80
2018-02-27T19:45:44.589Z,33.80
2018-02-27T19:48:12.283Z,34.10
2018-02-27T19:50:41.033Z,34.40
2018-02-27T19:53:08.654Z,34.50
2018-02-27T19:55:36.407Z,34.50
2018-02-27T19:58:04.023Z,34.50
2018-02-27T20:00:31.617Z,34.60
2018-02-27T20:02:59.251Z,34.80
2018-02-27T20:05:26.854Z,34.90
2018-02-27T20:07:54.412Z,35.10
2018-02-27T20:10:21.999Z,35.10
2018-02-27T20:12:49.553Z,34.70
2018-02-27T20:15:17.185Z,34.60
2018-02-27T20:17:50.366Z,34.50
2018-02-27T20:20:18.013Z,35.00
2018-02-27T20:22:51.201Z,35.30
2018-02-27T20:25:18.781Z,35.20
2018-02-27T20:27:46.412Z,34.80
2018-02-27T20:30:14.016Z,34.40
2018-02-27T20:32:41.699Z,34.30
2018-02-27T20:35:09.322Z,34.20
2018-02-27T20:37:36.913Z,34.40
2018-02-27T20:40:04.494Z,34.70
2018-02-27T20:42:32.043Z,35.00
2018-02-27T20:44:59.635Z,35.00
2018-02-27T20:47:27.191Z,35.30
2018-02-27T20:49:54.774Z,35.10
2018-02-27T20:52:22.315Z,35.10
2018-02-27T20:54:49.944Z,35.10
2018-02-27T20:57:17.542Z,35.40
2018-02-27T20:59:45.933Z,35.30
2018-02-27T21:02:13.538Z,35.30
2018-02-27T21:04:41.127Z,35.60
2018-02-27T21:07:09.444Z,36.20
2018-02-27T21:09:36.995Z,36.20
2018-02-27T21:12:04.589Z,36.40
2018-02-27T21:14:32.251Z,36.30
2018-02-27T21:16:59.803Z,36.20
2018-02-27T21:19:27.402Z,36.40
2018-02-27T21:21:55.711Z,36.50
2018-02-27T21:24:23.631Z,36.40
2018-02-27T21:26:51.177Z,36.60
2018-02-27T21:29:18.727Z,36.70
2018-02-27T21:31:46.320Z,36.80
2018-02-27T21:34:13.868Z,37.40
2018-02-27T21:36:41.498Z,37.30
2018-02-27T21:39:09.047Z,37.30
2018-02-27T21:41:36.632Z,37.00
2018-02-27T21:44:04.236Z,37.60
2018-02-27T21:46:32.550Z,36.90
2018-02-27T21:49:00.105Z,36.90
2018-02-27T21:51:27.656Z,36.80
2018-02-27T21:53:56.005Z,36.80
2018-02-27T21:56:23.604Z,36.70
2018-02-27T21:58:51.193Z,36.80
2018-02-27T22:01:18.735Z,37.00
2018-02-27T22:03:46.316Z,37.10
2018-02-27T22:06:13.923Z,37.20
2018-02-27T22:08:41.512Z,37.40
2018-02-27T22:11:09.101Z,37.30
2018-02-27T22:13:36.678Z,37.20
2018-02-27T22:16:04.269Z,37.20
2018-02-27T22:18:31.813Z,37.10
2018-02-27T22:21:00.176Z,37.20
2018-02-27T22:23:27.770Z,37.20
2018-02-27T22:25:55.354Z,37.10
2018-02-27T22:28:22.925Z,37.60
2018-02-27T22:30:51.036Z,37.80
2018-02-27T22:33:19.398Z,38.20
2018-02-27T22:35:46.992Z,38.20
2018-02-27T22:38:14.590Z,38.20
2018-02-27T22:40:42.205Z,38.10
2018-02-27T22:43:09.769Z,38.00
2018-02-27T22:45:37.374Z,37.90
2018-02-27T22:48:04.963Z,38.00
2018-02-27T22:50:32.585Z,37.80
2018-02-27T22:53:00.162Z,37.90
2018-02-27T22:55:27.750Z,38.20
2018-02-27T22:57:55.289Z,38.40
2018-02-27T23:00:35.522Z,38.30
2018-02-27T23:03:03.194Z,38.30
2018-02-27T23:05:31.094Z,38.40
2018-02-27T23:07:58.720Z,38.20
2018-02-27T23:10:26.333Z,38.20
2018-02-27T23:12:54.839Z,38.60
2018-02-27T23:15:22.421Z,38.50
2018-02-27T23:17:50.885Z,38.30
2018-02-27T23:20:18.466Z,38.40
2018-02-27T23:22:46.025Z,38.40
2018-02-27T23:25:21.861Z,38.40
2018-02-27T23:27:50.585Z,38.50
2018-02-27T23:30:22.934Z,38.50
2018-02-27T23:32:51.277Z,38.20
2018-02-27T23:35:20.361Z,38.30
2018-02-27T23:37:47.913Z,38.30
2018-02-27T23:40:15.479Z,38.50
2018-02-27T23:42:43.816Z,38.40
2018-02-27T23:45:11.433Z,38.40
2018-02-27T23:47:39.003Z,38.80
2018-02-27T23:50:07.456Z,38.70
2018-02-27T23:52:35.017Z,39.10
2018-02-27T23:55:02.604Z,39.10
2018-02-27T23:57:30.265Z,38.90
2018-02-27T23:59:57.851Z,38.80
